Time;durP1;ratioP1;P1;durP2;ratioP2;P2;SDS_P1;SDS_P2;PMS_P1;PMS_P2;Temp;Humidity;BMP_temperature;BMP_pressure;BME280_temperature;BME280_humidity;BME280_pressure;Samples;Min_cycle;Max_cycle;Signal;HPM_P1;HPM_P2
2021/12/22 00:01:14;;;;;;;17.33;8.80;;;;;;;-4.65;100.00;99573.38;4842350;29;20042;-63
2021/12/22 00:03:45;;;;;;;20.55;9.07;;;;;;;-4.65;100.00;99568.19;4842300;29;20058;-62
2021/12/22 00:06:11;;;;;;;18.88;9.02;;;;;;;-4.68;100.00;99568.34;4826398;29;20038;-63
2021/12/22 00:08:37;;;;;;;18.75;8.85;;;;;;;-4.81;100.00;99581.25;4822635;29;20050;-63
2021/12/22 00:11:02;;;;;;;18.83;9.90;;;;;;;-4.89;100.00;99575.66;4824016;29;20065;-62
2021/12/22 00:13:29;;;;;;;21.23;9.80;;;;;;;-4.91;100.00;99582.72;4824078;29;20485;-62
2021/12/22 00:15:57;;;;;;;19.58;9.50;;;;;;;-4.86;100.00;99569.44;4823820;29;20019;-63
2021/12/22 00:18:22;;;;;;;23.30;10.32;;;;;;;-4.88;100.00;99568.69;4822915;29;20061;-63
2021/12/22 00:20:48;;;;;;;21.53;10.07;;;;;;;-4.89;100.00;99574.81;4823845;29;20054;-63
2021/12/22 00:23:13;;;;;;;21.33;9.47;;;;;;;-4.93;100.00;99575.91;4807421;29;20034;-63
2021/12/22 00:25:39;;;;;;;21.77;9.90;;;;;;;-4.93;100.00;99578.53;4823617;29;20034;-62
2021/12/22 00:28:05;;;;;;;21.07;10.77;;;;;;;-4.94;100.00;99575.06;4823724;29;20042;-63
2021/12/22 00:30:31;;;;;;;22.53;9.77;;;;;;;-4.92;100.00;99581.03;4806733;29;20034;-63
2021/12/22 00:33:03;;;;;;;19.58;9.85;;;;;;;-4.99;100.00;99584.09;4823695;29;20033;-63
2021/12/22 00:35:37;;;;;;;21.48;9.63;;;;;;;-5.01;100.00;99586.78;4822516;29;20073;-63
2021/12/22 00:38:04;;;;;;;16.10;8.80;;;;;;;-4.99;100.00;99577.13;4823504;29;20086;-62
2021/12/22 00:40:30;;;;;;;18.90;9.32;;;;;;;-5.14;100.00;99581.44;4823595;29;20118;-63
2021/12/22 00:42:56;;;;;;;19.27;9.75;;;;;;;-5.10;100.00;99582.13;4807052;29;20557;-62
2021/12/22 00:45:24;;;;;;;18.23;9.57;;;;;;;-5.11;100.00;99589.09;4822378;29;20035;-63
2021/12/22 00:47:50;;;;;;;19.92;8.68;;;;;;;-5.07;100.00;99591.50;4823388;29;20054;-63
2021/12/22 00:50:16;;;;;;;18.02;8.73;;;;;;;-5.15;100.00;99592.78;4823467;29;20033;-63
2021/12/22 00:52:42;;;;;;;17.23;8.60;;;;;;;-5.17;100.00;99584.22;4823387;29;20030;-63
2021/12/22 00:55:09;;;;;;;17.10;8.83;;;;;;;-5.19;100.00;99593.06;4823337;29;20434;-63
2021/12/22 00:57:37;;;;;;;16.65;8.43;;;;;;;-5.17;100.00;99592.03;4823330;29;20027;-63
2021/12/22 01:00:05;;;;;;;18.27;8.32;;;;;;;-5.00;100.00;99595.44;4823215;29;20102;-62
2021/12/22 01:02:31;;;;;;;22.98;8.77;;;;;;;-5.15;100.00;99600.59;4823559;29;20042;-62
2021/12/22 01:04:58;;;;;;;22.50;9.00;;;;;;;-5.17;100.00;99596.38;4822098;29;20069;-63
2021/12/22 01:07:23;;;;;;;21.02;9.15;;;;;;;-5.18;100.00;99603.38;4823380;29;20084;-63
2021/12/22 01:09:49;;;;;;;17.23;8.63;;;;;;;-5.16;100.00;99605.88;4821929;29;20054;-63
2021/12/22 01:12:15;;;;;;;19.53;8.73;;;;;;;-5.14;100.00;99617.91;4823198;29;20030;-63
2021/12/22 01:14:41;;;;;;;16.42;8.25;;;;;;;-5.16;100.00;99611.94;4806789;29;20056;-63
2021/12/22 01:17:11;;;;;;;19.67;9.35;;;;;;;-5.31;100.00;99611.97;4822908;29;20034;-63
2021/12/22 01:19:44;;;;;;;17.90;8.65;;;;;;;-5.32;100.00;99621.56;4822973;29;20038;-63
2021/12/22 01:22:31;;;;;;;16.27;8.40;;;;;;;-5.44;100.00;99622.22;4821795;29;20034;-63
2021/12/22 01:25:02;;;;;;;18.27;8.60;;;;;;;-5.57;100.00;99622.06;4821809;29;20408;-63
2021/12/22 01:27:36;;;;;;;18.42;8.98;;;;;;;-5.63;100.00;99619.78;4821767;29;20038;-63
2021/12/22 01:30:12;;;;;;;18.85;8.73;;;;;;;-5.73;100.00;99620.34;4823037;29;20041;-63
2021/12/22 01:32:39;;;;;;;22.67;9.60;;;;;;;-5.71;100.00;99626.31;4822817;29;20446;-63
2021/12/22 01:35:07;;;;;;;19.83;9.55;;;;;;;-5.66;100.00;99625.16;4822649;29;20030;-62
2021/12/22 01:37:33;;;;;;;20.33;9.88;;;;;;;-5.54;100.00;99624.47;4822709;29;20429;-62
2021/12/22 01:40:00;;;;;;;20.17;9.50;;;;;;;-5.52;100.00;99622.63;4806332;29;20038;-63
2021/12/22 01:42:26;;;;;;;20.13;9.77;;;;;;;-5.54;100.00;99619.25;4822692;29;20034;-63
2021/12/22 01:45:36;;;;;;;20.88;9.85;;;;;;;-5.54;100.00;99623.66;4822643;29;20375;-63
2021/12/22 01:50:44;;;;;;;20.23;9.50;;;;;;;-5.55;100.00;99625.44;4822683;29;20102;-62
2021/12/22 01:53:45;;;;;;;19.52;9.27;;;;;;;-5.58;100.00;99625.59;4822532;29;20544;-62
2021/12/22 01:58:49;;;;;;;20.67;8.95;;;;;;;-5.56;100.00;99625.50;4784100;30;20117;-62
2021/12/22 02:01:15;;;;;;;20.65;9.50;;;;;;;-5.60;100.00;99629.19;4784133;30;20082;-63
2021/12/22 02:03:43;;;;;;;20.02;8.45;;;;;;;-5.66;100.00;99626.94;4784064;30;20035;-63
2021/12/22 02:06:08;;;;;;;19.30;9.10;;;;;;;-5.67;100.00;99625.25;4783935;29;20112;-63
2021/12/22 02:08:43;;;;;;;19.83;8.47;;;;;;;-5.68;100.00;99627.00;4783827;30;20055;-63
2021/12/22 02:11:10;;;;;;;19.55;8.43;;;;;;;-5.71;100.00;99621.13;4783812;30;20486;-63
2021/12/22 02:13:40;;;;;;;19.90;9.18;;;;;;;-5.83;100.00;99627.81;4784042;30;20043;-64
2021/12/22 02:16:13;;;;;;;20.08;9.32;;;;;;;-5.87;100.00;99632.34;4783747;29;20100;-62
2021/12/22 02:18:42;;;;;;;19.98;9.15;;;;;;;-5.85;100.00;99634.88;4783813;30;20150;-63
2021/12/22 02:21:09;;;;;;;21.17;9.63;;;;;;;-5.74;100.00;99636.91;4783881;30;20038;-63
2021/12/22 02:23:36;;;;;;;21.38;9.23;;;;;;;-5.87;100.00;99642.75;4783898;30;20074;-63
2021/12/22 02:26:12;;;;;;;21.02;9.00;;;;;;;-5.87;100.00;99647.13;4783773;29;20047;-62
2021/12/22 02:28:41;;;;;;;20.17;9.35;;;;;;;-5.82;100.00;99647.72;4783770;30;20118;-63
2021/12/22 02:31:12;;;;;;;20.35;9.23;;;;;;;-5.93;100.00;99645.72;4783628;30;20490;-63
2021/12/22 02:33:40;;;;;;;20.10;9.65;;;;;;;-6.04;100.00;99642.84;4821538;29;20521;-63
2021/12/22 02:36:21;;;;;;;19.65;8.98;;;;;;;-6.04;100.00;99653.25;4821917;29;20034;-63
2021/12/22 02:38:53;;;;;;;23.83;9.98;;;;;;;-6.03;100.00;99647.13;4821193;29;20038;-62
2021/12/22 02:41:31;;;;;;;18.63;9.15;;;;;;;-6.06;100.00;99649.88;4805677;29;20102;-63
2021/12/22 02:43:58;;;;;;;20.98;9.20;;;;;;;-6.07;100.00;99653.41;4822200;29;20034;-63
2021/12/22 02:46:31;;;;;;;19.48;9.60;;;;;;;-6.01;100.00;99647.91;4821920;29;20030;-63
2021/12/22 02:48:58;;;;;;;21.17;9.05;;;;;;;-6.13;100.00;99651.13;4805699;29;20066;-63
2021/12/22 02:51:27;;;;;;;22.40;9.13;;;;;;;-6.23;100.00;99661.16;4821983;29;20041;-62
2021/12/22 03:04:10;;;;;;;22.20;9.98;;;;;;;-6.19;100.00;99661.00;4825248;29;20122;-62
2021/12/22 03:06:44;;;;;;;21.45;9.98;;;;;;;-6.16;100.00;99656.50;4824823;29;20083;-63
2021/12/22 03:09:18;;;;;;;23.05;10.00;;;;;;;-6.20;100.00;99662.75;4835504;29;20062;-62
2021/12/22 03:11:44;;;;;;;23.65;11.40;;;;;;;-6.38;100.00;99661.94;4843328;29;20082;-63
2021/12/22 03:14:10;;;;;;;25.70;13.37;;;;;;;-6.39;100.00;99668.06;4843402;29;20736;-62
2021/12/22 03:16:36;;;;;;;27.52;14.95;;;;;;;-6.31;100.00;99662.47;4843127;29;20511;-62
2021/12/22 03:19:03;;;;;;;29.20;15.07;;;;;;;-6.30;100.00;99661.53;4843138;29;20034;-62
2021/12/22 03:21:29;;;;;;;26.98;13.45;;;;;;;-6.31;100.00;99665.06;4811622;29;20042;-63
2021/12/22 03:23:55;;;;;;;26.27;12.30;;;;;;;-6.42;100.00;99675.16;4843009;29;20132;-62
2021/12/22 03:26:23;;;;;;;24.15;12.50;;;;;;;-6.49;100.00;99660.81;4842799;29;20490;-63
2021/12/22 03:28:50;;;;;;;24.40;12.23;;;;;;;-6.41;100.00;99662.09;4843149;29;20049;-63
2021/12/22 03:31:16;;;;;;;23.92;11.80;;;;;;;-6.39;100.00;99660.25;4826360;29;20034;-62
2021/12/22 03:33:43;;;;;;;22.00;11.57;;;;;;;-6.27;100.00;99670.03;4841745;29;20057;-63
2021/12/22 03:36:09;;;;;;;25.92;13.57;;;;;;;-6.37;100.00;99665.38;4842663;29;20025;-63
2021/12/22 03:38:36;;;;;;;25.52;11.63;;;;;;;-6.36;100.00;99661.88;4826528;29;20416;-63
2021/12/22 03:41:05;;;;;;;23.90;11.82;;;;;;;-6.41;100.00;99664.69;4842584;29;20026;-62
2021/12/22 03:43:31;;;;;;;27.10;12.50;;;;;;;-6.40;100.00;99666.38;4842639;29;20062;-63
2021/12/22 03:45:58;;;;;;;24.58;11.90;;;;;;;-6.35;100.00;99668.75;4826117;29;20026;-63
2021/12/22 03:48:25;;;;;;;24.85;12.05;;;;;;;-6.36;100.00;99665.31;4826289;29;20032;-62
2021/12/22 03:50:52;;;;;;;24.80;12.02;;;;;;;-6.36;100.00;99669.66;4826279;29;20037;-63
2021/12/22 03:53:18;;;;;;;24.65;11.82;;;;;;;-6.36;100.00;99672.28;4842657;29;20030;-62
2021/12/22 03:55:43;;;;;;;28.40;13.13;;;;;;;-6.40;100.00;99675.94;4842546;29;20049;-63
2021/12/22 03:58:10;;;;;;;23.73;11.37;;;;;;;-6.42;100.00;99678.59;4842362;29;20038;-63
2021/12/22 04:00:38;;;;;;;24.98;11.43;;;;;;;-6.41;100.00;99682.06;4842382;29;20033;-63
2021/12/22 04:03:04;;;;;;;23.65;11.07;;;;;;;-6.45;100.00;99675.31;4825935;29;20036;-63
2021/12/22 04:05:30;;;;;;;25.15;11.18;;;;;;;-6.53;100.00;99688.69;4825101;29;20034;-63
2021/12/22 04:07:56;;;;;;;22.97;11.27;;;;;;;-6.54;100.00;99684.41;4841979;29;20119;-63
2021/12/22 04:10:25;;;;;;;24.00;11.63;;;;;;;-6.60;100.00;99692.53;4842136;29;20029;-62
2021/12/22 04:12:55;;;;;;;25.90;11.48;;;;;;;-6.63;100.00;99693.53;4842272;29;20170;-64
2021/12/22 04:15:23;;;;;;;26.63;11.35;;;;;;;-6.59;100.00;99686.41;4842213;29;20025;-63
2021/12/22 04:17:49;;;;;;;25.17;11.38;;;;;;;-6.59;100.00;99694.22;4841995;29;20235;-63
2021/12/22 04:20:15;;;;;;;24.40;11.88;;;;;;;-6.56;100.00;99691.44;4825664;29;20033;-63
2021/12/22 04:22:41;;;;;;;28.03;12.07;;;;;;;-6.51;100.00;99693.84;4841980;29;20034;-63
2021/12/22 04:25:09;;;;;;;26.17;11.43;;;;;;;-6.52;100.00;99693.00;4841843;29;20037;-63
2021/12/22 04:27:36;;;;;;;26.20;11.75;;;;;;;-6.52;100.00;99689.53;4841935;29;20076;-63
2021/12/22 04:30:04;;;;;;;27.92;11.45;;;;;;;-6.51;100.00;99688.63;4825561;29;20548;-63
2021/12/22 04:32:30;;;;;;;25.17;11.10;;;;;;;-6.48;100.00;99689.31;4825612;29;20101;-62
2021/12/22 04:34:56;;;;;;;25.87;11.80;;;;;;;-6.44;100.00;99690.00;4841897;29;20709;-63
2021/12/22 04:37:22;;;;;;;27.93;12.70;;;;;;;-6.44;100.00;99690.84;4841993;29;20037;-63
2021/12/22 04:39:47;;;;;;;26.98;11.63;;;;;;;-6.49;100.00;99692.00;4841784;29;20117;-63
2021/12/22 04:42:15;;;;;;;23.00;11.60;;;;;;;-6.48;100.00;99689.31;4809951;29;20078;-63
2021/12/22 04:44:41;;;;;;;28.35;12.40;;;;;;;-6.42;100.00;99701.16;4841582;29;20153;-63
2021/12/22 04:47:06;;;;;;;29.17;13.03;;;;;;;-6.41;100.00;99687.25;4825192;29;20048;-63
2021/12/22 04:49:32;;;;;;;26.60;12.10;;;;;;;-6.48;100.00;99686.72;4841633;29;20045;-63
2021/12/22 04:52:03;;;;;;;25.30;11.83;;;;;;;-6.40;100.00;99689.78;4841657;29;20041;-63
2021/12/22 04:54:35;;;;;;;25.08;12.20;;;;;;;-6.40;100.00;99696.75;4841640;29;20057;-63
2021/12/22 04:57:00;;;;;;;27.23;11.57;;;;;;;-6.40;100.00;99701.94;4841546;29;20422;-63
2021/12/22 04:59:26;;;;;;;28.90;12.97;;;;;;;-6.45;100.00;99694.34;4825209;29;20094;-63
2021/12/22 05:01:52;;;;;;;29.52;12.38;;;;;;;-6.39;100.00;99699.25;4841371;29;20030;-63
2021/12/22 05:04:18;;;;;;;24.63;11.63;;;;;;;-6.53;100.00;99708.66;4841304;29;20038;-62
2021/12/22 05:06:44;;;;;;;25.40;11.37;;;;;;;-6.50;100.00;99696.34;4841047;29;20321;-63
2021/12/22 05:09:10;;;;;;;24.70;11.25;;;;;;;-6.42;100.00;99701.16;4840929;29;20062;-63
2021/12/22 05:11:36;;;;;;;26.63;11.63;;;;;;;-6.41;100.00;99701.09;4841129;29;20137;-62
2021/12/22 05:14:04;;;;;;;25.85;11.40;;;;;;;-6.47;100.00;99701.41;4841130;29;20036;-63
2021/12/22 05:16:30;;;;;;;26.80;11.77;;;;;;;-6.41;100.00;99702.84;4840736;29;20022;-63
2021/12/22 05:21:22;;;;;;;27.90;12.33;;;;;;;-6.37;100.00;99696.59;4825022;29;20492;-62
2021/12/22 05:23:49;;;;;;;28.85;11.93;;;;;;;-6.36;100.00;99698.28;4824850;29;20078;-63
2021/12/22 05:26:16;;;;;;;28.98;12.70;;;;;;;-6.37;100.00;99699.19;4809340;29;20038;-63
2021/12/22 05:28:43;;;;;;;27.33;12.18;;;;;;;-6.30;100.00;99697.97;4840866;29;20480;-62
2021/12/22 05:31:08;;;;;;;27.30;11.98;;;;;;;-6.23;100.00;99691.53;4840734;29;20480;-62
2021/12/22 05:33:34;;;;;;;26.93;12.53;;;;;;;-6.24;100.00;99695.06;4824603;29;20086;-63
2021/12/22 05:36:00;;;;;;;32.10;14.33;;;;;;;-6.24;100.00;99702.88;4840802;29;20026;-62
2021/12/22 05:38:25;;;;;;;31.57;13.80;;;;;;;-6.24;100.00;99705.47;4824345;29;20492;-63
2021/12/22 05:40:51;;;;;;;31.17;14.43;;;;;;;-6.28;100.00;99711.72;4840775;29;20041;-63
2021/12/22 05:43:17;;;;;;;31.80;14.77;;;;;;;-6.38;100.00;99716.56;4840738;29;20033;-63
2021/12/22 05:45:42;;;;;;;32.90;14.10;;;;;;;-6.29;100.00;99715.25;4840751;29;20075;-63
2021/12/22 05:48:08;;;;;;;33.57;13.67;;;;;;;-6.15;100.00;99714.56;4809072;29;20041;-63
2021/12/22 05:50:34;;;;;;;29.83;12.67;;;;;;;-6.20;100.00;99712.16;4840853;29;20504;-62
2021/12/22 05:52:59;;;;;;;28.87;13.60;;;;;;;-6.28;100.00;99711.72;4840628;29;20030;-63
2021/12/22 05:55:25;;;;;;;32.83;14.23;;;;;;;-6.28;100.00;99711.72;4840542;29;20083;-63
2021/12/22 05:57:51;;;;;;;31.77;13.67;;;;;;;-6.33;100.00;99718.91;4840487;29;20473;-63
2021/12/22 06:00:17;;;;;;;30.25;14.02;;;;;;;-6.41;100.00;99718.44;4824380;29;20030;-63
2021/12/22 06:02:43;;;;;;;30.00;14.80;;;;;;;-6.40;100.00;99718.38;4840582;29;20026;-63
2021/12/22 06:05:09;;;;;;;30.80;14.67;;;;;;;-6.48;100.00;99711.88;4840634;29;20792;-62
2021/12/22 06:07:35;;;;;;;29.80;14.07;;;;;;;-6.53;100.00;99719.91;4824412;29;20033;-63
2021/12/22 06:10:01;;;;;;;30.27;14.13;;;;;;;-6.60;100.00;99718.53;4836270;29;20050;-63
2021/12/22 06:12:26;;;;;;;29.90;14.13;;;;;;;-6.78;100.00;99715.03;4821299;29;20030;-63
2021/12/22 06:14:52;;;;;;;28.73;13.07;;;;;;;-6.75;100.00;99724.47;4822349;29;20057;-63
2021/12/22 06:17:18;;;;;;;28.50;13.80;;;;;;;-6.78;100.00;99720.25;4821893;29;20392;-63
2021/12/22 06:19:44;;;;;;;27.90;14.00;;;;;;;-6.76;100.00;99721.00;4821052;29;20038;-62
2021/12/22 06:22:09;;;;;;;28.87;14.40;;;;;;;-6.72;100.00;99719.13;4822413;29;20396;-63
2021/12/22 06:24:35;;;;;;;30.73;13.97;;;;;;;-6.71;100.00;99720.81;4822528;29;20030;-62
2021/12/22 06:27:01;;;;;;;30.45;13.63;;;;;;;-6.79;100.00;99717.72;4822210;29;20110;-62
2021/12/22 06:29:27;;;;;;;28.73;13.37;;;;;;;-6.78;100.00;99729.78;4824860;29;20109;-63
2021/12/22 06:31:53;;;;;;;34.67;14.90;;;;;;;-6.77;100.00;99728.88;4825454;29;20069;-62
2021/12/22 06:34:18;;;;;;;31.77;14.67;;;;;;;-6.80;100.00;99734.22;4825514;29;20067;-63
2021/12/22 06:36:44;;;;;;;33.00;14.57;;;;;;;-6.85;100.00;99736.22;4824019;29;20448;-62
2021/12/22 06:39:10;;;;;;;30.50;13.53;;;;;;;-6.86;100.00;99734.53;4825374;29;20042;-63
2021/12/22 06:41:37;;;;;;;32.33;12.87;;;;;;;-6.85;100.00;99736.22;4824239;29;20042;-63
2021/12/22 06:44:05;;;;;;;29.67;13.40;;;;;;;-6.88;100.00;99737.19;4824245;29;20092;-62
2021/12/22 06:46:32;;;;;;;31.63;13.63;;;;;;;-6.83;100.00;99734.38;4823920;29;20133;-63
2021/12/22 06:48:57;;;;;;;31.85;14.70;;;;;;;-6.72;100.00;99729.50;4825297;29;20045;-62
2021/12/22 06:51:23;;;;;;;32.20;13.30;;;;;;;-6.76;100.00;99733.16;4837369;29;20036;-62
2021/12/22 06:53:48;;;;;;;28.60;12.83;;;;;;;-6.81;100.00;99725.59;4843579;29;20480;-62
2021/12/22 06:56:14;;;;;;;29.60;12.70;;;;;;;-6.85;100.00;99731.84;4851511;29;20027;-62
2021/12/22 06:58:40;;;;;;;28.43;13.57;;;;;;;-6.89;100.00;99732.91;4835842;29;20029;-62
2021/12/22 07:01:05;;;;;;;27.87;12.40;;;;;;;-6.72;100.00;99729.50;4843386;29;20522;-65
2021/12/22 07:03:31;;;;;;;29.50;13.20;;;;;;;-6.71;100.00;99728.59;4843360;29;20068;-69
2021/12/22 07:05:56;;;;;;;33.67;13.77;;;;;;;-6.70;100.00;99730.28;4843244;29;20045;-64
2021/12/22 07:08:22;;;;;;;31.13;13.43;;;;;;;-6.65;100.00;99736.94;4847632;29;20091;-65
2021/12/22 07:10:47;;;;;;;34.77;13.30;;;;;;;-6.65;100.00;99739.53;4861553;29;20457;-64
2021/12/22 07:13:14;;;;;;;31.60;13.30;;;;;;;-6.64;100.00;99745.56;4861229;29;20100;-68
2021/12/22 07:15:40;;;;;;;33.80;13.63;;;;;;;-6.70;100.00;99749.31;4843811;29;20052;-66
2021/12/22 07:18:10;;;;;;;32.13;14.00;;;;;;;-6.64;100.00;99746.41;4846858;29;20029;-65
2021/12/22 07:20:36;;;;;;;31.80;14.27;;;;;;;-6.50;100.00;99752.72;4861487;29;20455;-65
2021/12/22 07:23:04;;;;;;;33.43;13.80;;;;;;;-6.51;100.00;99759.66;4836489;29;20076;-68
2021/12/22 07:25:30;;;;;;;30.52;13.52;;;;;;;-6.51;100.00;99766.63;4841431;29;20033;-68
2021/12/22 07:27:55;;;;;;;29.83;14.27;;;;;;;-6.63;100.00;99768.91;4861521;29;20062;-66
2021/12/22 07:30:21;;;;;;;32.23;14.17;;;;;;;-6.62;100.00;99773.19;4844862;29;20041;-64
2021/12/22 07:32:47;;;;;;;31.17;14.07;;;;;;;-6.52;100.00;99772.72;4826028;29;20041;-64
2021/12/22 07:35:34;;;;;;;33.50;14.27;;;;;;;-6.47;100.00;99778.56;4841367;29;20029;-65
2021/12/22 07:38:24;;;;;;;32.70;14.55;;;;;;;-6.51;100.00;99780.47;4834163;29;20041;-65
2021/12/22 07:40:54;;;;;;;31.02;14.07;;;;;;;-6.39;100.00;99779.88;4846847;29;20511;-65
2021/12/22 07:43:20;;;;;;;34.67;14.88;;;;;;;-6.41;100.00;99775.66;4841052;29;20116;-73
2021/12/22 07:45:46;;;;;;;36.00;15.27;;;;;;;-6.35;100.00;99773.63;4860907;29;20117;-74
2021/12/22 07:48:12;;;;;;;31.70;14.23;;;;;;;-6.32;100.00;99767.41;4840410;29;20040;-73
2021/12/22 07:50:38;;;;;;;32.07;15.07;;;;;;;-6.33;100.00;99769.16;4839913;29;20041;-74
2021/12/22 07:53:03;;;;;;;31.92;14.15;;;;;;;-6.28;100.00;99767.19;4860175;29;20037;-74
2021/12/22 07:55:29;;;;;;;32.63;15.07;;;;;;;-6.22;100.00;99774.66;4860483;29;20034;-74
2021/12/22 07:57:55;;;;;;;30.10;14.63;;;;;;;-6.12;100.00;99771.63;4843899;29;20032;-73
2021/12/22 08:00:20;;;;;;;33.07;14.93;;;;;;;-6.15;100.00;99776.97;4857645;29;20037;-70
2021/12/22 08:02:46;;;;;;;29.80;13.47;;;;;;;-6.13;100.00;99778.59;4848517;29;20029;-72
2021/12/22 08:05:12;;;;;;;31.37;13.77;;;;;;;-6.01;100.00;99774.53;4838632;29;20045;-72
2021/12/22 08:07:37;;;;;;;31.03;15.13;;;;;;;-5.89;100.00;99779.97;4860210;29;20025;-73
2021/12/22 08:10:04;;;;;;;36.70;16.73;;;;;;;-4.79;100.00;99774.09;4857208;29;20082;-73
2021/12/22 08:12:30;;;;;;;44.63;19.17;;;;;;;-3.31;100.00;99766.28;4860573;29;20037;-73
2021/12/22 08:14:56;;;;;;;31.00;15.50;;;;;;;-2.15;100.00;99769.34;4836554;29;20041;-75
2021/12/22 08:17:21;;;;;;;24.47;12.60;;;;;;;-1.62;100.00;99765.78;4874920;29;20093;-73
2021/12/22 08:19:48;;;;;;;18.60;9.97;;;;;;;-1.27;100.00;99764.19;4858523;29;20085;-75
2021/12/22 08:22:14;;;;;;;16.30;9.40;;;;;;;-0.43;100.00;99768.69;4842118;29;20034;-75
2021/12/22 08:24:40;;;;;;;15.97;9.00;;;;;;;0.10;100.00;99775.25;4857249;29;20364;-75
2021/12/22 08:27:06;;;;;;;18.60;10.03;;;;;;;0.84;100.00;99773.94;4857728;29;20089;-74
2021/12/22 08:29:32;;;;;;;17.27;10.43;;;;;;;1.12;100.00;99784.94;4859376;29;20038;-74
2021/12/22 08:31:57;;;;;;;19.50;10.83;;;;;;;0.97;100.00;99776.44;4860593;29;20025;-75
2021/12/22 08:34:28;;;;;;;20.60;12.03;;;;;;;0.77;100.00;99774.53;4844702;29;20280;-75
2021/12/22 08:39:40;;;;;;;24.00;13.47;;;;;;;0.61;100.00;99774.88;4840099;29;20482;-74
2021/12/22 08:42:07;;;;;;;27.57;14.23;;;;;;;1.16;100.00;99775.81;4840993;29;20636;-74
2021/12/22 08:44:33;;;;;;;25.90;14.13;;;;;;;1.36;100.00;99772.47;4825072;29;20741;-73
2021/12/22 08:46:59;;;;;;;24.73;13.70;;;;;;;0.92;100.00;99770.72;4841139;29;20313;-72
2021/12/22 08:49:25;;;;;;;26.37;14.53;;;;;;;1.57;100.00;99780.44;4841500;29;20325;-73
2021/12/22 08:51:51;;;;;;;26.30;13.90;;;;;;;2.29;100.00;99775.38;4846906;29;20695;-73
2021/12/22 08:54:18;;;;;;;28.03;14.40;;;;;;;2.16;100.00;99773.75;4858367;29;20544;-73
2021/12/22 08:56:44;;;;;;;25.20;14.50;;;;;;;2.33;100.00;99764.41;4859398;29;20067;-74
2021/12/22 08:59:12;;;;;;;26.03;14.07;;;;;;;2.80;100.00;99762.19;4859375;29;20303;-75
2021/12/22 09:01:38;;;;;;;22.00;14.03;;;;;;;2.72;100.00;99762.00;4842585;29;20727;-75
2021/12/22 09:04:03;;;;;;;20.50;13.40;;;;;;;2.42;100.00;99776.03;4859745;29;20600;-75
2021/12/22 09:06:29;;;;;;;27.53;14.10;;;;;;;3.17;100.00;99773.03;4859204;29;20059;-75
2021/12/22 09:08:54;;;;;;;25.93;14.47;;;;;;;2.42;100.00;99778.66;4859156;29;20057;-74
2021/12/22 09:11:20;;;;;;;27.37;15.10;;;;;;;1.77;100.00;99777.03;4859525;29;20028;-74
2021/12/22 09:13:47;;;;;;;29.70;17.40;;;;;;;1.98;100.00;99777.91;4859453;29;20034;-73
2021/12/22 09:16:12;;;;;;;35.57;18.50;;;;;;;1.97;100.00;99781.50;4859234;29;20264;-73
2021/12/22 09:18:38;;;;;;;38.00;20.13;;;;;;;2.01;100.00;99784.72;4859517;29;20319;-74
2021/12/22 09:21:05;;;;;;;30.97;17.63;;;;;;;2.15;100.00;99774.72;4859625;29;20033;-75
2021/12/22 09:23:32;;;;;;;30.10;17.10;;;;;;;2.07;100.00;99773.69;4856791;29;20112;-74
2021/12/22 09:25:58;;;;;;;33.83;17.53;;;;;;;2.33;100.00;99771.50;4841593;29;20292;-73
2021/12/22 09:28:24;;;;;;;29.47;18.17;;;;;;;2.22;100.00;99771.56;4859799;29;20280;-73
2021/12/22 09:30:49;;;;;;;30.40;17.80;;;;;;;2.69;100.00;99764.91;4843131;29;20073;-71
2021/12/22 09:33:18;;;;;;;29.20;17.33;;;;;;;2.41;100.00;99763.78;4859318;29;20136;-73
2021/12/22 09:35:46;;;;;;;36.37;20.23;;;;;;;2.17;100.00;99766.69;4842940;29;20021;-74
2021/12/22 09:38:12;;;;;;;38.77;19.37;;;;;;;2.72;100.00;99757.56;4859426;29;20772;-73
2021/12/22 09:40:38;;;;;;;31.37;17.80;;;;;;;2.67;100.00;99754.47;4859636;29;20305;-71
2021/12/22 09:43:04;;;;;;;31.17;18.20;;;;;;;2.89;100.00;99756.94;4860420;29;20387;-71
2021/12/22 09:45:31;;;;;;;31.90;18.53;;;;;;;2.30;100.00;99753.31;4843700;29;20285;-71
2021/12/22 09:48:22;;;;;;;35.80;18.57;;;;;;;2.76;100.00;99761.63;4813718;29;20284;-71
2021/12/22 09:50:53;;;;;;;34.00;17.23;;;;;;;3.35;100.00;99755.56;4846465;29;20296;-72
2021/12/22 09:53:22;;;;;;;33.33;18.93;;;;;;;4.16;100.00;99756.19;4859114;29;20265;-73
2021/12/22 09:55:48;;;;;;;30.37;17.00;;;;;;;2.59;100.00;99751.66;4849333;29;20631;-73
2021/12/22 09:58:14;;;;;;;30.07;16.77;;;;;;;3.04;100.00;99749.50;4842316;29;20272;-73
2021/12/22 10:00:41;;;;;;;27.93;14.70;;;;;;;2.97;100.00;99744.91;4858711;29;20276;-72
2021/12/22 10:03:08;;;;;;;33.83;16.47;;;;;;;2.94;100.00;99739.88;4843130;29;20555;-72
2021/12/22 10:05:35;;;;;;;23.63;15.30;;;;;;;3.06;100.00;99726.44;4846216;29;20337;-71
2021/12/22 10:08:08;;;;;;;24.97;15.00;;;;;;;3.21;100.00;99738.31;4831463;29;20283;-70
2021/12/22 10:10:36;;;;;;;25.08;15.48;;;;;;;2.82;100.00;99739.97;4863062;29;20337;-70
2021/12/22 10:13:25;;;;;;;28.73;15.67;;;;;;;2.96;100.00;99735.31;4846497;29;20060;-71
2021/12/22 10:15:52;;;;;;;27.60;15.40;;;;;;;3.42;100.00;99732.09;4863049;29;20294;-71
2021/12/22 10:18:20;;;;;;;26.63;15.60;;;;;;;3.53;100.00;99724.88;4863036;29;20356;-71
2021/12/22 10:20:48;;;;;;;27.33;14.70;;;;;;;3.76;100.00;99722.81;4862898;29;20268;-71
2021/12/22 10:23:22;;;;;;;23.73;14.03;;;;;;;3.68;100.00;99717.38;4862660;29;20747;-70
2021/12/22 10:25:56;;;;;;;22.23;13.90;;;;;;;4.09;100.00;99720.69;4861151;29;20295;-71
2021/12/22 10:28:22;;;;;;;;;;;;;;;4.32;100.00;99719.41;4846052;29;20276;-70
2021/12/22 10:30:49;;;;;;;21.93;12.20;;;;;;;4.32;100.00;99720.25;4862826;29;19964;-71
2021/12/22 10:33:20;;;;;;;20.13;10.83;;;;;;;4.47;100.00;99719.81;4845857;29;20651;-72
2021/12/22 10:35:59;;;;;;;18.77;9.53;;;;;;;5.06;100.00;99717.63;4862522;29;20268;-70
2021/12/22 10:38:29;;;;;;;17.10;9.77;;;;;;;5.06;100.00;99707.03;4862281;29;20272;-71
2021/12/22 10:41:00;;;;;;;11.90;7.43;;;;;;;5.07;93.25;99705.22;4862104;29;20277;-71
2021/12/22 10:43:29;;;;;;;16.20;7.43;;;;;;;4.16;97.38;99698.81;4861631;29;20346;-71
2021/12/22 10:46:01;;;;;;;11.20;6.37;;;;;;;3.99;99.52;99700.41;4862151;29;20299;-72
2021/12/22 10:51:20;;;;;;;11.23;6.20;;;;;;;4.16;94.60;99692.69;4860790;29;20272;-71
2021/12/22 10:53:50;;;;;;;10.60;5.93;;;;;;;4.02;94.13;99693.16;4861312;29;20626;-70
2021/12/22 10:56:41;;;;;;;10.00;6.23;;;;;;;4.31;97.92;99691.28;4862718;29;20292;-70
2021/12/22 10:59:13;;;;;;;8.20;5.47;;;;;;;4.53;91.34;99684.81;4859228;29;20818;-72
2021/12/22 11:01:53;;;;;;;11.43;5.57;;;;;;;4.45;93.61;99685.53;4860980;29;20382;-71
2021/12/22 11:04:25;;;;;;;10.33;5.90;;;;;;;4.63;95.58;99685.59;4862478;29;20269;-71
2021/12/22 11:06:53;;;;;;;10.17;6.17;;;;;;;4.08;95.97;99684.66;4861911;29;20289;-72
2021/12/22 11:09:20;;;;;;;9.80;6.07;;;;;;;4.07;95.53;99688.25;4873219;29;20438;-75
2021/12/22 11:11:56;;;;;;;12.17;6.40;;;;;;;4.02;96.90;99686.06;4880514;29;20354;-71
2021/12/22 11:14:26;;;;;;;10.17;5.80;;;;;;;5.51;86.40;99677.03;4863634;29;20272;-70
2021/12/22 11:16:57;;;;;;;8.73;5.27;;;;;;;5.80;73.60;99674.97;4863777;29;20370;-71
2021/12/22 11:19:24;;;;;;;8.97;5.33;;;;;;;5.64;70.67;99671.38;4861949;29;20304;-73
2021/12/22 11:22:15;;;;;;;10.00;6.00;;;;;;;5.83;74.37;99666.72;4841403;29;20300;-72
2021/12/22 11:24:50;;;;;;;10.80;6.00;;;;;;;5.41;75.16;99666.50;4828167;29;20312;-73
2021/12/22 11:27:27;;;;;;;10.30;5.70;;;;;;;5.24;74.40;99659.38;4842749;29;20923;-72
2021/12/22 11:29:55;;;;;;;9.97;6.10;;;;;;;4.97;75.19;99662.88;4855688;29;20276;-72
2021/12/22 11:32:25;;;;;;;10.23;6.07;;;;;;;4.67;76.09;99655.22;4861060;29;20279;-71
2021/12/22 11:34:52;;;;;;;13.17;6.73;;;;;;;4.57;80.96;99654.44;4860854;29;20304;-71
2021/12/22 11:37:19;;;;;;;9.90;6.13;;;;;;;4.15;81.70;99646.94;4860877;29;20288;-71
2021/12/22 11:39:45;;;;;;;10.20;6.10;;;;;;;3.64;82.30;99647.28;4844487;29;20279;-70
2021/12/22 11:42:13;;;;;;;9.43;5.97;;;;;;;3.62;81.21;99641.28;4835528;29;20306;-70